createdAt,value
2022-09-05T00:01:44.199Z,5.18
2022-09-05T00:04:55.022Z,5.40
2022-09-05T00:08:06.491Z,6.03
2022-09-05T00:11:40.485Z,5.13
2022-09-05T00:15:18.243Z,5.57
2022-09-05T00:22:52.627Z,5.82
2022-09-05T00:24:25.584Z,5.47
2022-09-05T00:26:06.139Z,5.40
2022-09-05T00:29:44.937Z,5.80
2022-09-05T00:33:26.019Z,5.90
2022-09-05T00:36:43.063Z,6.63
2022-09-05T00:39:47.912Z,5.57
2022-09-05T00:43:12.437Z,5.53
2022-09-05T00:46:19.042Z,5.95
2022-09-05T00:49:29.239Z,5.88
2022-09-05T00:52:39.226Z,5.72
2022-09-05T00:55:58.925Z,5.63
2022-09-05T00:59:58.554Z,5.87
2022-09-05T01:03:32.101Z,6.35
2022-09-05T01:06:59.828Z,6.43
2022-09-05T01:10:23.735Z,6.70
2022-09-05T01:13:41.178Z,5.40
2022-09-05T01:17:05.493Z,6.00
2022-09-05T01:20:37.620Z,6.10
2022-09-05T01:23:57.812Z,6.97
2022-09-05T01:28:46.165Z,6.25
2022-09-05T01:31:14.031Z,6.73
2022-09-05T01:34:31.365Z,6.57
2022-09-05T01:37:44.860Z,6.27
2022-09-05T01:41:18.099Z,7.00
2022-09-05T01:44:47.343Z,6.87
2022-09-05T01:47:59.068Z,6.90
2022-09-05T01:51:29.124Z,7.67
2022-09-05T01:54:48.750Z,7.87
2022-09-05T01:58:03.363Z,7.80
2022-09-05T02:01:31.645Z,7.20
2022-09-05T02:04:55.723Z,6.83
2022-09-05T02:08:20.481Z,7.37
2022-09-05T02:11:42.318Z,6.90
2022-09-05T02:14:54.462Z,7.33
2022-09-05T02:17:59.661Z,6.90
2022-09-05T02:21:09.705Z,7.50
2022-09-05T02:24:22.141Z,6.90
2022-09-05T02:28:04.027Z,7.93
2022-09-05T02:31:19.565Z,8.97
2022-09-05T02:34:34.374Z,7.13
2022-09-05T02:38:47.145Z,8.97
2022-09-05T02:45:10.557Z,7.27
2022-09-05T02:45:24.379Z,8.17
2022-09-05T02:48:34.785Z,8.33
2022-09-05T02:57:30.442Z,7.73
2022-09-05T02:57:37.962Z,10.87
2022-09-05T02:59:09.773Z,6.97
2022-09-05T03:02:26.532Z,9.37
2022-09-05T03:05:35.972Z,8.80
2022-09-05T03:09:16.813Z,8.27
2022-09-05T03:12:56.743Z,9.40
2022-09-05T03:16:47.843Z,9.73
2022-09-05T03:20:51.362Z,8.87
2022-09-05T03:24:41.856Z,7.17
2022-09-05T03:28:31.689Z,7.77
2022-09-05T03:32:15.011Z,7.07
2022-09-05T03:36:18.932Z,6.97
2022-09-05T03:40:16.251Z,7.03
2022-09-05T03:43:59.415Z,7.60
2022-09-05T03:47:31.142Z,7.10
2022-09-05T03:55:12.194Z,6.97
2022-09-05T03:57:11.479Z,6.97
2022-09-05T03:58:55.296Z,6.90
2022-09-05T04:04:56.300Z,5.63
2022-09-05T04:08:28.341Z,6.07
2022-09-05T04:09:05.532Z,6.30
2022-09-05T04:12:16.838Z,6.67
2022-09-05T04:15:32.759Z,5.57
2022-09-05T04:18:41.091Z,6.10
2022-09-05T04:21:55.694Z,5.97
2022-09-05T04:25:06.202Z,5.70
2022-09-05T04:28:27.471Z,5.63
2022-09-05T04:31:45.288Z,6.50
2022-09-05T04:35:09.872Z,6.40
2022-09-05T04:38:16.503Z,6.40
2022-09-05T04:41:39.554Z,6.43
2022-09-05T04:44:48.798Z,6.80
2022-09-05T04:47:56.018Z,6.00
2022-09-05T04:51:07.701Z,6.33
2022-09-05T04:54:30.499Z,6.17
2022-09-05T04:57:39.278Z,6.07
2022-09-05T05:06:02.690Z,5.90
2022-09-05T05:06:13.731Z,6.20
2022-09-05T05:07:53.231Z,6.30
2022-09-05T05:15:56.575Z,5.60
2022-09-05T05:18:15.633Z,5.87
2022-09-05T05:18:39.777Z,5.70
2022-09-05T05:21:31.445Z,6.50
2022-09-05T05:24:37.807Z,6.33
2022-09-05T05:27:46.575Z,6.47
2022-09-05T05:30:50.552Z,6.80
2022-09-05T05:34:04.005Z,5.87
2022-09-05T05:37:25.218Z,5.47
2022-09-05T05:40:38.361Z,6.07
2022-09-05T05:43:54.509Z,7.50
2022-09-05T05:47:02.961Z,6.73
2022-09-05T05:50:17.095Z,5.67
2022-09-05T05:53:43.954Z,7.10
2022-09-05T05:57:15.419Z,6.27
2022-09-05T06:00:24.594Z,6.97
2022-09-05T06:03:54.917Z,5.00
2022-09-05T06:07:10.247Z,6.03
2022-09-05T06:14:58.706Z,6.03
2022-09-05T06:15:27.243Z,5.60
2022-09-05T06:19:17.870Z,5.07
2022-09-05T06:23:28.738Z,6.83
2022-09-05T06:27:12.379Z,6.30
2022-09-05T06:30:20.659Z,5.80
2022-09-05T06:33:41.895Z,5.43
2022-09-05T06:36:58.574Z,5.90
2022-09-05T06:40:14.283Z,4.73
2022-09-05T06:43:54.106Z,4.90
2022-09-05T06:47:23.796Z,4.70
2022-09-05T06:51:07.166Z,5.78
2022-09-05T06:54:35.486Z,4.47
2022-09-05T06:58:41.316Z,4.90
2022-09-05T07:02:00.405Z,5.30
2022-09-05T07:05:37.628Z,4.32
2022-09-05T07:08:51.202Z,5.20
2022-09-05T07:12:14.085Z,5.15
2022-09-05T07:15:34.629Z,5.60
2022-09-05T07:18:46.930Z,5.80
2022-09-05T07:22:29.450Z,5.75
2022-09-05T07:25:37.610Z,6.40
2022-09-05T07:28:44.212Z,5.75
2022-09-05T07:31:57.199Z,5.70
2022-09-05T07:35:04.318Z,6.10
2022-09-05T07:38:13.821Z,5.50
2022-09-05T07:41:23.766Z,5.38
2022-09-05T07:44:31.699Z,5.05
2022-09-05T07:47:41.167Z,5.85
2022-09-05T07:54:28.390Z,5.20
2022-09-05T07:57:15.474Z,5.53
2022-09-05T07:57:51.953Z,5.13
2022-09-05T08:00:58.757Z,5.35
2022-09-05T08:04:05.874Z,5.10
2022-09-05T08:07:49.322Z,5.22
2022-09-05T08:11:25.744Z,5.75
2022-09-05T08:14:44.725Z,4.93
2022-09-05T08:18:01.525Z,5.03
2022-09-05T08:21:12.015Z,5.40
2022-09-05T08:24:25.938Z,4.72
2022-09-05T08:27:34.127Z,5.68
2022-09-05T08:30:45.526Z,5.13
2022-09-05T08:33:53.788Z,6.03
2022-09-05T08:37:01.281Z,5.32
2022-09-05T08:40:11.068Z,5.63
2022-09-05T08:43:51.796Z,5.57
2022-09-05T08:47:04.383Z,5.40
2022-09-05T08:50:39.302Z,5.90
2022-09-05T08:54:02.012Z,9.93
2022-09-05T08:57:18.310Z,5.47
2022-09-05T09:00:24.430Z,5.32
2022-09-05T09:03:35.588Z,8.50
2022-09-05T09:07:47.773Z,5.80
2022-09-05T09:10:44.741Z,5.32
2022-09-05T09:13:55.005Z,5.13
2022-09-05T09:17:06.730Z,5.57
2022-09-05T09:20:28.253Z,4.90
2022-09-05T09:23:47.762Z,5.00
2022-09-05T09:27:00.874Z,5.00
2022-09-05T09:30:07.233Z,4.70
2022-09-05T09:33:18.279Z,5.57
2022-09-05T09:36:47.399Z,5.00
2022-09-05T09:40:27.867Z,4.88
2022-09-05T09:43:57.571Z,5.10
2022-09-05T09:47:01.290Z,4.78
2022-09-05T09:50:29.990Z,4.22
2022-09-05T09:54:05.931Z,4.55
2022-09-05T09:57:57.380Z,5.15
2022-09-05T10:01:36.326Z,4.72
2022-09-05T10:10:34.785Z,4.82
2022-09-05T10:10:55.368Z,4.68
2022-09-05T10:13:08.811Z,4.65
2022-09-05T10:17:01.389Z,4.63
2022-09-05T10:20:29.202Z,3.78
2022-09-05T10:24:14.241Z,4.28
2022-09-05T10:27:44.438Z,4.88
2022-09-05T10:31:39.834Z,4.40
2022-09-05T10:35:12.866Z,4.20
2022-09-05T10:37:54.871Z,4.60
2022-09-05T10:41:22.402Z,3.65
2022-09-05T10:44:40.566Z,4.07
2022-09-05T10:47:49.446Z,4.25
2022-09-05T10:51:01.529Z,4.60
2022-09-05T10:54:24.029Z,3.80
2022-09-05T10:57:43.777Z,4.20
2022-09-05T11:02:21.202Z,4.07
2022-09-05T11:04:46.662Z,3.55
2022-09-05T11:08:06.145Z,3.80
2022-09-05T11:11:28.448Z,3.35
2022-09-05T11:14:52.330Z,3.80
2022-09-05T11:18:03.794Z,3.80
2022-09-05T11:21:12.263Z,3.75
2022-09-05T11:24:32.434Z,3.30
2022-09-05T11:27:40.113Z,3.88
2022-09-05T11:30:51.555Z,3.85
2022-09-05T11:39:52.577Z,3.85
2022-09-05T11:40:02.803Z,4.50
2022-09-05T11:42:31.380Z,4.35
2022-09-05T11:46:02.856Z,3.95
2022-09-05T11:49:35.912Z,3.83
2022-09-05T11:53:38.645Z,4.78
2022-09-05T11:57:33.920Z,4.15
2022-09-05T12:00:42.994Z,3.75
2022-09-05T12:04:13.176Z,3.75
2022-09-05T12:07:43.643Z,4.22
2022-09-05T12:11:02.521Z,4.70
2022-09-05T12:14:25.993Z,4.47
2022-09-05T12:17:38.332Z,4.80
2022-09-05T12:20:57.882Z,4.10
2022-09-05T12:25:24.351Z,4.13
2022-09-05T12:27:46.138Z,4.65
2022-09-05T12:31:29.625Z,4.88
2022-09-05T12:36:03.746Z,3.95
2022-09-05T12:40:55.373Z,4.90
2022-09-05T12:41:40.655Z,4.68
2022-09-05T12:44:56.516Z,4.45
2022-09-05T12:48:08.374Z,4.75
2022-09-05T12:51:45.976Z,5.22
2022-09-05T12:54:51.024Z,4.45
2022-09-05T13:02:58.008Z,5.30
2022-09-05T13:03:11.103Z,4.53
2022-09-05T13:05:02.815Z,4.68
2022-09-05T13:08:21.540Z,5.05
2022-09-05T13:14:46.573Z,5.32
2022-09-05T13:15:12.321Z,4.07
2022-09-05T13:18:24.864Z,4.68
2022-09-05T13:21:29.587Z,5.10
2022-09-05T13:24:38.715Z,4.63
2022-09-05T13:27:56.574Z,4.97
2022-09-05T13:37:53.928Z,4.30
2022-09-05T13:38:16.015Z,3.97
2022-09-05T13:41:35.979Z,4.85
2022-09-05T13:44:46.402Z,5.22
2022-09-05T13:48:15.316Z,5.90
2022-09-05T13:51:31.295Z,4.40
2022-09-05T13:54:44.771Z,5.18
2022-09-05T13:57:58.357Z,5.03
2022-09-05T14:01:30.443Z,5.03
2022-09-05T14:05:20.948Z,5.55
2022-09-05T14:08:40.266Z,5.30
2022-09-05T14:11:58.067Z,4.57
2022-09-05T14:15:19.140Z,4.53
2022-09-05T14:18:34.114Z,4.80
2022-09-05T14:21:40.242Z,4.72
2022-09-05T14:24:50.125Z,4.78
2022-09-05T14:28:05.728Z,4.85
2022-09-05T14:33:34.126Z,4.30
2022-09-05T14:37:44.559Z,4.78
2022-09-05T14:38:26.910Z,5.15
2022-09-05T14:42:09.311Z,4.18
2022-09-05T14:45:48.929Z,4.68
2022-09-05T14:49:24.071Z,5.28
2022-09-05T14:52:30.392Z,5.70
2022-09-05T14:55:36.882Z,4.93
2022-09-05T15:02:48.386Z,5.10
2022-09-05T15:02:51.545Z,4.72
2022-09-05T15:05:50.218Z,4.97
2022-09-05T15:12:02.092Z,4.65
2022-09-05T15:12:42.229Z,4.60
2022-09-05T15:16:02.123Z,5.15
2022-09-05T15:19:06.339Z,5.03
2022-09-05T15:22:27.445Z,4.43
2022-09-05T15:25:32.450Z,4.53
2022-09-05T15:28:39.033Z,4.95
2022-09-05T15:31:42.983Z,4.95
2022-09-05T15:34:46.038Z,5.18
2022-09-05T15:37:50.466Z,5.72
2022-09-05T15:41:20.557Z,4.55
2022-09-05T15:44:27.858Z,5.25
2022-09-05T15:47:31.926Z,4.65
2022-09-05T15:50:41.911Z,4.80
2022-09-05T15:53:52.065Z,5.18
2022-09-05T15:56:57.331Z,5.03
2022-09-05T16:00:04.966Z,5.15
2022-09-05T16:06:00.861Z,4.97
2022-09-05T16:10:37.856Z,4.60
2022-09-05T16:10:45.766Z,5.00
2022-09-05T16:13:36.813Z,4.93
2022-09-05T16:23:13.618Z,5.30
2022-09-05T16:23:30.083Z,4.68
2022-09-05T16:24:04.209Z,4.55
2022-09-05T16:27:13.527Z,4.70
2022-09-05T16:30:24.434Z,4.80
2022-09-05T16:33:31.395Z,6.15
2022-09-05T16:36:46.345Z,4.47
2022-09-05T16:40:02.530Z,4.80
2022-09-05T16:43:12.172Z,5.05
2022-09-05T16:46:21.701Z,5.47
2022-09-05T16:49:41.733Z,5.13
2022-09-05T16:53:35.927Z,5.72
2022-09-05T16:56:42.268Z,5.97
2022-09-05T16:59:48.078Z,5.10
2022-09-05T17:02:58.744Z,5.13
2022-09-05T17:06:17.848Z,5.47
2022-09-05T17:09:39.990Z,5.80
2022-09-05T17:12:44.148Z,5.60
2022-09-05T17:15:52.585Z,5.03
2022-09-05T17:19:00.287Z,5.25
2022-09-05T17:28:05.184Z,5.47
2022-09-05T17:29:30.531Z,5.55
2022-09-05T17:33:19.114Z,5.05
2022-09-05T17:36:33.597Z,5.13
2022-09-05T17:39:55.603Z,5.13
2022-09-05T17:43:01.836Z,4.97
2022-09-05T17:46:20.128Z,5.07
2022-09-05T17:49:46.847Z,6.78
2022-09-05T17:53:26.673Z,7.13
2022-09-05T17:56:36.457Z,7.80
2022-09-05T17:59:39.481Z,5.45
2022-09-05T18:02:56.136Z,5.93
2022-09-05T18:06:04.063Z,6.18
2022-09-05T18:09:10.489Z,5.97
2022-09-05T18:13:12.889Z,5.82
2022-09-05T18:16:12.709Z,5.20
2022-09-05T18:20:06.185Z,5.10
2022-09-05T18:23:44.377Z,6.38
2022-09-05T18:27:11.421Z,5.65
2022-09-05T18:34:43.661Z,5.47
2022-09-05T18:37:54.241Z,5.55
2022-09-05T18:41:22.000Z,5.78
2022-09-05T18:44:28.539Z,6.00
2022-09-05T18:47:52.621Z,5.95
2022-09-05T18:51:15.520Z,5.30
2022-09-05T18:54:21.824Z,5.00
2022-09-05T18:57:38.063Z,5.28
2022-09-05T19:00:46.879Z,5.55
2022-09-05T19:03:52.463Z,5.35
2022-09-05T19:06:58.622Z,5.05
2022-09-05T19:10:35.957Z,5.45
2022-09-05T19:13:44.822Z,5.10
2022-09-05T19:16:49.794Z,5.53
2022-09-05T19:20:31.825Z,6.07
2022-09-05T19:23:41.498Z,5.15
2022-09-05T19:26:48.437Z,5.38
2022-09-05T19:36:46.651Z,5.78
2022-09-05T19:36:53.410Z,5.50
2022-09-05T19:37:30.541Z,5.80
2022-09-05T19:47:05.881Z,4.88
2022-09-05T19:47:37.946Z,5.40
2022-09-05T19:48:04.111Z,5.10
2022-09-05T19:50:56.835Z,5.22
2022-09-05T19:54:05.222Z,5.40
2022-09-05T19:57:16.090Z,5.70
2022-09-05T20:00:24.764Z,5.65
2022-09-05T20:03:38.959Z,5.53
2022-09-05T20:06:42.706Z,5.78
2022-09-05T20:09:48.676Z,5.55
2022-09-05T20:12:52.343Z,5.22
2022-09-05T20:15:55.569Z,6.13
2022-09-05T20:19:00.033Z,5.13
2022-09-05T20:22:49.173Z,6.03
2022-09-05T20:25:44.679Z,5.75
2022-09-05T20:28:53.992Z,5.30
2022-09-05T20:31:59.219Z,5.45
2022-09-05T20:41:30.585Z,5.53
2022-09-05T20:43:09.963Z,5.80
2022-09-05T20:43:30.344Z,4.93
2022-09-05T20:45:46.125Z,5.75
2022-09-05T20:54:08.017Z,5.57
2022-09-05T20:54:22.576Z,5.13
2022-09-05T20:56:09.517Z,5.40
2022-09-05T20:59:26.139Z,5.45
2022-09-05T21:02:36.590Z,5.13
2022-09-05T21:05:40.318Z,4.55
2022-09-05T21:08:44.701Z,5.18
2022-09-05T21:11:50.822Z,5.03
2022-09-05T21:15:03.177Z,5.30
2022-09-05T21:18:33.561Z,5.00
2022-09-05T21:21:37.464Z,5.32
2022-09-05T21:24:42.384Z,4.85
2022-09-05T21:27:57.468Z,5.13
2022-09-05T21:31:04.635Z,5.13
2022-09-05T21:34:23.136Z,4.70
2022-09-05T21:37:27.555Z,4.97
2022-09-05T21:40:32.610Z,4.53
2022-09-05T21:47:35.580Z,4.88
2022-09-05T21:47:48.685Z,4.47
2022-09-05T21:50:31.397Z,4.85
2022-09-05T21:56:54.649Z,4.30
2022-09-05T21:59:33.069Z,3.75
2022-09-05T22:00:34.254Z,3.70
2022-09-05T22:03:39.020Z,3.55
2022-09-05T22:06:48.272Z,4.00
2022-09-05T22:09:51.597Z,3.88
2022-09-05T22:12:55.853Z,3.95
2022-09-05T22:16:04.837Z,4.03
2022-09-05T22:19:07.941Z,3.67
2022-09-05T22:22:17.094Z,3.85
2022-09-05T22:25:27.415Z,4.25
2022-09-05T22:28:33.745Z,3.70
2022-09-05T22:31:36.963Z,3.53
2022-09-05T22:34:40.200Z,3.50
2022-09-05T22:37:47.360Z,3.33
2022-09-05T22:40:50.893Z,3.78
2022-09-05T22:43:55.207Z,3.70
2022-09-05T22:46:58.198Z,3.70
2022-09-05T22:50:01.493Z,3.67
2022-09-05T22:53:06.895Z,3.30
2022-09-05T22:56:10.912Z,3.10
2022-09-05T22:59:17.024Z,3.15
2022-09-05T23:02:20.135Z,3.17
2022-09-05T23:05:23.074Z,3.00
2022-09-05T23:08:26.328Z,3.00
2022-09-05T23:11:29.498Z,3.08
2022-09-05T23:14:34.117Z,2.85
2022-09-05T23:17:37.130Z,3.15
2022-09-05T23:20:40.130Z,3.20
2022-09-05T23:23:43.688Z,3.30
2022-09-05T23:26:46.668Z,3.03
2022-09-05T23:29:50.968Z,3.17
2022-09-05T23:32:54.113Z,2.92
2022-09-05T23:36:00.994Z,2.90
2022-09-05T23:39:04.103Z,3.10
2022-09-05T23:42:07.571Z,2.67
2022-09-05T23:45:12.447Z,3.20
2022-09-05T23:48:15.621Z,2.88
2022-09-05T23:51:18.665Z,2.92
2022-09-05T23:54:21.647Z,2.63
2022-09-05T23:57:25.039Z,3.08
